Time;durP1;ratioP1;P1;durP2;ratioP2;P2;SDS_P1;SDS_P2;PMS_P1;PMS_P2;Temp;Humidity;BMP_temperature;BMP_pressure;BME280_temperature;BME280_humidity;BME280_pressure;Samples;Min_cycle;Max_cycle;Signal;HPM_P1;HPM_P2
2022/09/30 00:01:41;;;;;;;7.53;6.87;;;8.60;99.90;;;;;;5032276;28;20187;-62
2022/09/30 00:04:11;;;;;;;9.23;7.50;;;8.50;99.90;;;;;;5015366;28;20282;-61
2022/09/30 00:06:37;;;;;;;7.60;6.87;;;8.50;99.90;;;;;;5015309;28;20542;-61
2022/09/30 00:09:03;;;;;;;7.73;6.83;;;8.50;99.90;;;;;;5021386;28;20287;-75
2022/09/30 00:11:32;;;;;;;7.27;6.53;;;8.40;99.90;;;;;;5039710;28;20224;-64
2022/09/30 00:13:58;;;;;;;8.57;7.63;;;8.50;99.90;;;;;;5020185;28;20204;-61
2022/09/30 00:16:27;;;;;;;8.13;7.37;;;8.40;99.90;;;;;;5035103;28;20252;-62
2022/09/30 00:18:55;;;;;;;7.13;6.50;;;8.40;99.90;;;;;;5027122;28;20203;-62
2022/09/30 00:21:20;;;;;;;7.67;6.87;;;8.40;99.90;;;;;;5041093;28;20185;-61
2022/09/30 00:23:46;;;;;;;7.73;7.03;;;8.40;99.90;;;;;;5027086;28;20200;-61
2022/09/30 00:26:18;;;;;;;6.87;6.27;;;8.30;99.90;;;;;;5029401;28;20207;-63
2022/09/30 00:28:44;;;;;;;7.53;6.80;;;8.30;99.90;;;;;;5028676;28;20207;-61
2022/09/30 00:31:13;;;;;;;7.83;6.53;;;8.20;99.90;;;;;;5033957;28;20531;-61
2022/09/30 00:33:40;;;;;;;6.93;6.30;;;8.30;99.90;;;;;;5028460;28;20322;-61
2022/09/30 00:36:05;;;;;;;7.33;6.63;;;8.30;99.90;;;;;;5042426;28;20591;-61
2022/09/30 00:38:31;;;;;;;7.73;6.93;;;8.20;99.90;;;;;;5026881;28;20191;-61
2022/09/30 00:40:58;;;;;;;9.10;8.23;;;8.20;99.90;;;;;;5033636;28;20205;-62
2022/09/30 00:43:50;;;;;;;7.73;6.93;;;8.10;99.90;;;;;;5031194;28;20286;-61
2022/09/30 00:46:29;;;;;;;8.17;7.47;;;8.20;99.90;;;;;;5023756;28;20204;-61
2022/09/30 00:48:57;;;;;;;7.70;6.87;;;8.10;99.90;;;;;;5021577;28;20203;-61
2022/09/30 00:51:48;;;;;;;7.20;6.50;;;8.10;99.90;;;;;;5037437;28;20583;-61
2022/09/30 00:54:24;;;;;;;7.53;6.87;;;8.00;99.90;;;;;;5015624;28;20212;-61
2022/09/30 00:56:56;;;;;;;7.20;6.43;;;8.00;99.90;;;;;;5018970;28;20227;-61
2022/09/30 00:59:32;;;;;;;8.57;7.10;;;8.00;99.90;;;;;;5026524;28;20568;-61
2022/09/30 01:01:58;;;;;;;7.87;6.43;;;8.00;99.90;;;;;;5015977;28;20270;-61
2022/09/30 01:04:26;;;;;;;17.67;6.87;;;8.00;99.90;;;;;;5026441;28;20358;-62
2022/09/30 01:06:52;;;;;;;7.07;6.47;;;7.90;99.90;;;;;;5030984;28;20961;-62
2022/09/30 01:09:18;;;;;;;7.30;6.60;;;7.90;99.90;;;;;;5015914;28;20180;-62
2022/09/30 01:11:45;;;;;;;8.23;7.53;;;7.90;99.90;;;;;;5033073;28;20219;-61
2022/09/30 01:14:22;;;;;;;8.67;6.70;;;7.90;99.90;;;;;;5024563;28;20200;-61
2022/09/30 01:17:01;;;;;;;7.17;6.57;;;7.90;99.90;;;;;;5023612;28;20194;-61
2022/09/30 01:20:02;;;;;;;7.50;6.80;;;7.90;99.90;;;;;;5012569;28;20280;-61
2022/09/30 01:23:02;;;;;;;7.03;6.33;;;7.90;99.90;;;;;;5024722;28;20195;-61
2022/09/30 01:25:49;;;;;;;7.37;6.50;;;7.90;99.90;;;;;;5013738;28;20267;-61
2022/09/30 01:28:53;;;;;;;7.63;7.00;;;7.90;99.90;;;;;;5023168;28;20733;-62
2022/09/30 01:31:21;;;;;;;9.03;7.23;;;7.90;99.90;;;;;;5015496;28;20190;-62
2022/09/30 01:34:09;;;;;;;8.53;7.50;;;7.80;99.90;;;;;;5028525;28;20287;-62
2022/09/30 01:36:53;;;;;;;7.43;6.73;;;7.90;99.90;;;;;;5023839;28;20268;-61
2022/09/30 01:39:37;;;;;;;7.83;7.10;;;7.90;99.90;;;;;;5020605;28;20211;-61
2022/09/30 01:42:19;;;;;;;7.77;6.93;;;7.80;99.90;;;;;;5028396;28;20199;-60
2022/09/30 01:45:02;;;;;;;8.30;7.40;;;7.80;99.90;;;;;;5024626;28;20197;-61
2022/09/30 01:47:49;;;;;;;7.73;7.03;;;7.80;99.90;;;;;;5015079;28;20620;-61
2022/09/30 01:50:20;;;;;;;7.07;6.37;;;7.80;99.90;;;;;;5021299;28;20180;-61
2022/09/30 01:52:57;;;;;;;7.43;6.73;;;7.70;99.90;;;;;;5010500;28;20310;-61
2022/09/30 01:55:35;;;;;;;7.73;7.00;;;7.70;99.90;;;;;;5008640;28;20642;-62
2022/09/30 01:58:08;;;;;;;8.03;7.20;;;7.60;99.90;;;;;;5012070;28;20320;-61
2022/09/30 02:00:39;;;;;;;8.10;7.30;;;7.70;99.90;;;;;;5024770;28;20560;-61
2022/09/30 02:03:10;;;;;;;7.80;7.10;;;7.60;99.90;;;;;;5014861;28;20282;-62
2022/09/30 02:05:38;;;;;;;8.87;7.17;;;7.60;99.90;;;;;;5025467;28;20219;-61
2022/09/30 02:08:10;;;;;;;7.93;7.13;;;7.60;99.90;;;;;;5031346;28;20204;-61
2022/09/30 02:10:44;;;;;;;8.03;7.23;;;7.60;99.90;;;;;;5025389;28;20219;-62
2022/09/30 02:13:24;;;;;;;9.23;8.23;;;7.60;99.90;;;;;;5021717;28;20701;-61
2022/09/30 02:15:56;;;;;;;9.53;7.87;;;7.60;99.90;;;;;;5010708;28;20191;-61
2022/09/30 02:18:28;;;;;;;9.13;7.70;;;7.60;99.90;;;;;;5013715;28;20260;-62
2022/09/30 02:20:59;;;;;;;7.53;6.83;;;7.60;99.90;;;;;;5021777;28;20198;-61
2022/09/30 02:23:33;;;;;;;9.13;7.73;;;7.50;99.90;;;;;;5014373;28;20264;-61
2022/09/30 02:26:09;;;;;;;8.97;6.87;;;7.50;99.90;;;;;;5025798;28;20273;-61
2022/09/30 02:28:39;;;;;;;12.43;8.00;;;7.50;99.90;;;;;;5014976;28;20782;-61
2022/09/30 02:31:09;;;;;;;8.23;7.43;;;7.50;99.90;;;;;;5024511;28;20209;-61
2022/09/30 02:33:43;;;;;;;8.90;8.00;;;7.50;99.90;;;;;;5015961;28;20286;-63
2022/09/30 02:36:16;;;;;;;8.70;7.83;;;7.40;99.90;;;;;;5009618;28;20190;-61
2022/09/30 02:38:47;;;;;;;8.43;7.47;;;7.50;99.90;;;;;;5029876;28;20709;-61
2022/09/30 02:41:20;;;;;;;9.00;8.07;;;7.50;99.90;;;;;;5014069;28;20193;-61
2022/09/30 02:43:46;;;;;;;8.67;7.50;;;7.40;99.90;;;;;;5014717;28;20207;-61
2022/09/30 02:46:44;;;;;;;9.60;8.57;;;7.40;99.90;;;;;;5034652;28;20214;-61
2022/09/30 02:49:31;;;;;;;10.10;7.90;;;7.40;99.90;;;;;;5019430;28;20726;-61
2022/09/30 02:52:22;;;;;;;8.93;7.97;;;7.40;99.90;;;;;;5019481;28;20227;-61
2022/09/30 02:55:30;;;;;;;9.93;8.53;;;7.40;99.90;;;;;;5025075;28;20191;-61
2022/09/30 02:57:59;;;;;;;8.87;7.93;;;7.30;99.90;;;;;;5022652;28;20683;-61
2022/09/30 03:00:25;;;;;;;8.03;7.33;;;7.30;99.90;;;;;;5033791;28;20183;-61
2022/09/30 03:02:57;;;;;;;9.33;7.80;;;7.30;99.90;;;;;;5024848;28;20223;-61
2022/09/30 03:05:23;;;;;;;9.00;7.37;;;7.30;99.90;;;;;;5010731;28;20223;-61
2022/09/30 03:07:49;;;;;;;9.27;8.23;;;7.30;99.90;;;;;;5023547;28;20192;-61
2022/09/30 03:10:18;;;;;;;8.53;7.67;;;7.30;99.90;;;;;;5010570;28;20184;-61
2022/09/30 03:13:03;;;;;;;8.23;7.43;;;7.30;99.90;;;;;;5031096;28;20200;-61
2022/09/30 03:15:41;;;;;;;9.17;7.63;;;7.30;99.90;;;;;;5014978;28;20250;-61
2022/09/30 03:18:35;;;;;;;11.00;9.00;;;7.30;99.90;;;;;;5009834;28;20195;-61
2022/09/30 03:21:12;;;;;;;11.47;8.30;;;7.30;99.90;;;;;;5023982;28;20222;-61
2022/09/30 03:24:12;;;;;;;11.37;8.20;;;7.20;99.90;;;;;;5029692;28;20277;-61
2022/09/30 03:26:59;;;;;;;9.30;8.20;;;7.20;99.90;;;;;;5008923;28;20211;-61
2022/09/30 03:29:47;;;;;;;10.23;7.33;;;7.20;99.90;;;;;;5022589;28;20198;-61
2022/09/30 03:32:23;;;;;;;10.03;8.27;;;7.20;99.90;;;;;;5035013;28;20188;-61
2022/09/30 03:35:12;;;;;;;11.17;8.80;;;7.20;99.90;;;;;;5014132;28;20183;-61
2022/09/30 03:38:02;;;;;;;10.00;7.90;;;7.20;99.90;;;;;;5026061;28;20658;-61
2022/09/30 03:40:41;;;;;;;8.07;7.27;;;7.20;99.90;;;;;;5013805;28;20180;-61
2022/09/30 03:43:30;;;;;;;9.60;8.60;;;7.20;99.90;;;;;;5035159;28;20321;-61
2022/09/30 03:46:05;;;;;;;8.93;7.70;;;7.10;99.90;;;;;;5022409;28;20763;-62
2022/09/30 03:48:33;;;;;;;10.60;8.50;;;7.20;99.90;;;;;;5021575;28;20191;-62
2022/09/30 03:50:59;;;;;;;10.70;8.37;;;7.20;99.90;;;;;;5032478;28;20222;-61
2022/09/30 03:53:26;;;;;;;9.47;7.73;;;7.10;99.90;;;;;;5026423;28;20203;-61
2022/09/30 03:55:52;;;;;;;9.13;8.23;;;7.20;99.90;;;;;;5045409;28;20195;-61
2022/09/30 03:58:22;;;;;;;8.20;7.47;;;7.20;99.90;;;;;;5035507;28;20210;-61
2022/09/30 04:00:49;;;;;;;8.93;8.03;;;7.20;99.90;;;;;;5027772;28;20274;-61
2022/09/30 04:03:16;;;;;;;8.23;7.43;;;7.20;99.90;;;;;;5038721;28;20191;-60
2022/09/30 04:05:41;;;;;;;10.07;8.20;;;7.20;99.90;;;;;;5019008;28;20197;-60
2022/09/30 04:08:08;;;;;;;8.73;7.80;;;7.20;99.90;;;;;;5028768;28;20202;-62
2022/09/30 04:10:33;;;;;;;8.33;7.40;;;7.20;99.90;;;;;;5011363;28;20236;-60
2022/09/30 04:12:59;;;;;;;8.97;7.80;;;7.10;99.90;;;;;;5038275;28;20195;-60
2022/09/30 04:15:26;;;;;;;8.57;7.67;;;7.10;99.90;;;;;;5025422;28;20183;-60
2022/09/30 04:17:52;;;;;;;10.30;8.03;;;7.10;99.90;;;;;;5040791;28;20805;-61
2022/09/30 04:20:17;;;;;;;9.10;7.77;;;7.10;99.90;;;;;;5039379;28;20277;-61
2022/09/30 04:22:43;;;;;;;10.30;8.37;;;7.10;99.90;;;;;;5026093;28;20578;-61
2022/09/30 04:25:08;;;;;;;9.80;7.33;;;7.10;99.90;;;;;;5018418;28;20626;-61
2022/09/30 04:27:34;;;;;;;9.50;8.57;;;7.10;99.90;;;;;;5044659;28;20398;-61
2022/09/30 04:30:02;;;;;;;11.00;8.60;;;7.00;99.90;;;;;;5026779;28;20650;-60
2022/09/30 04:32:28;;;;;;;10.87;8.30;;;7.10;99.90;;;;;;5029093;28;20195;-60
2022/09/30 04:34:53;;;;;;;9.20;7.83;;;7.10;99.90;;;;;;5014876;28;20222;-61
2022/09/30 04:37:20;;;;;;;9.53;7.80;;;7.10;99.90;;;;;;5031436;28;20195;-60
2022/09/30 04:39:45;;;;;;;9.73;7.70;;;7.00;99.90;;;;;;5025945;28;20206;-61
2022/09/30 04:42:11;;;;;;;8.87;7.97;;;7.00;99.90;;;;;;5045333;28;20194;-61
2022/09/30 04:44:36;;;;;;;10.13;9.13;;;7.00;99.90;;;;;;5021775;28;20246;-61
2022/09/30 04:47:02;;;;;;;9.80;8.47;;;7.00;99.90;;;;;;5037691;28;20819;-60
2022/09/30 04:49:27;;;;;;;12.77;10.87;;;7.00;99.90;;;;;;5022760;28;20227;-61
2022/09/30 04:51:53;;;;;;;9.97;7.90;;;7.00;99.90;;;;;;5034636;28;20712;-61
2022/09/30 04:54:19;;;;;;;10.57;8.23;;;7.00;99.90;;;;;;5029537;28;20561;-62
2022/09/30 04:56:44;;;;;;;9.50;8.17;;;7.00;99.90;;;;;;5027233;28;20282;-62
2022/09/30 04:59:10;;;;;;;8.83;8.00;;;7.00;99.90;;;;;;5031466;28;20196;-62
2022/09/30 05:01:36;;;;;;;10.07;8.30;;;6.90;99.90;;;;;;5037379;28;20194;-61
2022/09/30 05:04:02;;;;;;;10.37;8.53;;;6.90;99.90;;;;;;5028888;28;20209;-61
2022/09/30 05:06:27;;;;;;;8.07;7.27;;;6.90;99.90;;;;;;5046232;28;20211;-62
2022/09/30 05:08:53;;;;;;;8.77;7.87;;;7.00;99.90;;;;;;5025336;28;20211;-61
2022/09/30 05:11:21;;;;;;;9.13;8.30;;;7.00;99.90;;;;;;5031500;28;20226;-61
2022/09/30 05:13:47;;;;;;;9.00;7.77;;;7.00;99.90;;;;;;5026297;28;20571;-61
2022/09/30 05:16:14;;;;;;;10.07;8.40;;;7.00;99.90;;;;;;5028182;28;20564;-61
2022/09/30 05:18:44;;;;;;;8.77;7.93;;;7.00;99.90;;;;;;5035633;28;20211;-61
2022/09/30 05:21:10;;;;;;;12.63;8.77;;;7.00;99.90;;;;;;5016579;28;20651;-61
2022/09/30 05:23:35;;;;;;;9.90;8.77;;;7.00;99.90;;;;;;5035645;28;20270;-61
2022/09/30 05:26:02;;;;;;;12.40;10.40;;;7.00;99.90;;;;;;5025919;28;20247;-61
2022/09/30 05:28:30;;;;;;;9.90;8.77;;;7.00;99.90;;;;;;5028932;28;20674;-61
2022/09/30 05:30:58;;;;;;;10.93;8.60;;;7.10;99.90;;;;;;5011785;28;20192;-61
2022/09/30 05:33:24;;;;;;;12.23;8.73;;;7.10;99.90;;;;;;5027334;28;20599;-61
2022/09/30 05:35:50;;;;;;;10.67;9.50;;;7.10;99.90;;;;;;5026517;28;20179;-61
2022/09/30 05:38:16;;;;;;;9.73;8.70;;;7.10;99.90;;;;;;5034000;28;20203;-61
2022/09/30 05:40:41;;;;;;;9.53;8.53;;;7.10;99.90;;;;;;5025938;28;20179;-61
2022/09/30 05:43:08;;;;;;;8.97;7.70;;;7.20;99.90;;;;;;5038949;28;20398;-62
2022/09/30 05:45:34;;;;;;;9.80;8.13;;;7.20;99.90;;;;;;5026311;28;20237;-61
2022/09/30 05:48:00;;;;;;;9.57;8.53;;;7.20;99.90;;;;;;5036303;28;20658;-61
2022/09/30 05:50:26;;;;;;;11.53;8.73;;;7.30;99.90;;;;;;5025778;28;20175;-62
2022/09/30 05:52:52;;;;;;;9.57;8.37;;;7.30;99.90;;;;;;5025470;28;20207;-62
2022/09/30 05:55:19;;;;;;;10.07;8.97;;;7.30;99.90;;;;;;5010886;28;20191;-62
2022/09/30 05:57:48;;;;;;;17.07;9.93;;;7.40;99.90;;;;;;5036269;28;20207;-62
2022/09/30 06:00:14;;;;;;;11.70;9.43;;;7.40;99.90;;;;;;5019283;28;20232;-61
2022/09/30 06:02:40;;;;;;;10.93;9.67;;;7.40;99.90;;;;;;5031588;28;20260;-61
2022/09/30 06:05:10;;;;;;;11.33;9.77;;;7.50;99.90;;;;;;5017023;28;20831;-62
2022/09/30 06:07:37;;;;;;;10.50;9.17;;;7.50;99.90;;;;;;5028768;28;20252;-62
2022/09/30 06:10:11;;;;;;;11.83;9.13;;;7.60;99.90;;;;;;5018040;28;20411;-62
2022/09/30 06:12:37;;;;;;;8.50;7.60;;;7.60;99.90;;;;;;5021250;28;20199;-62
2022/09/30 06:15:03;;;;;;;10.87;9.37;;;7.70;99.90;;;;;;5024888;28;20208;-62
2022/09/30 06:17:29;;;;;;;10.63;9.57;;;7.80;99.90;;;;;;5033556;28;20608;-61
2022/09/30 06:19:55;;;;;;;10.53;9.43;;;7.80;99.90;;;;;;5029734;28;20210;-62
2022/09/30 06:22:21;;;;;;;15.50;9.80;;;7.90;99.90;;;;;;5030224;28;20195;-61
2022/09/30 06:24:46;;;;;;;8.90;8.17;;;8.00;99.90;;;;;;5019585;28;20811;-61
2022/09/30 06:27:12;;;;;;;9.37;8.47;;;8.10;99.90;;;;;;5031001;28;20199;-61
2022/09/30 06:29:37;;;;;;;11.57;10.40;;;8.20;99.90;;;;;;5022737;28;20206;-63
2022/09/30 06:32:03;;;;;;;11.40;9.50;;;8.30;99.90;;;;;;5013476;28;20183;-64
2022/09/30 06:34:29;;;;;;;10.57;9.47;;;8.50;99.90;;;;;;5015187;28;20211;-63
2022/09/30 06:36:54;;;;;;;9.80;8.90;;;8.70;99.90;;;;;;5033597;28;20230;-65
2022/09/30 06:39:20;;;;;;;11.67;9.67;;;8.80;99.90;;;;;;5028598;28;20195;-64
2022/09/30 06:41:46;;;;;;;13.60;9.43;;;8.90;99.90;;;;;;5027434;28;20203;-63
2022/09/30 06:44:11;;;;;;;13.77;9.87;;;9.00;99.90;;;;;;5031927;28;20684;-64
2022/09/30 06:46:37;;;;;;;9.43;8.53;;;9.10;99.90;;;;;;5024835;28;20234;-64
2022/09/30 06:49:04;;;;;;;11.47;8.53;;;9.20;99.90;;;;;;5030909;28;20212;-64
2022/09/30 06:51:32;;;;;;;9.33;8.43;;;9.30;99.90;;;;;;5033985;28;20597;-65
2022/09/30 06:53:58;;;;;;;13.03;9.30;;;9.40;99.90;;;;;;5026688;28;20689;-66
2022/09/30 06:56:24;;;;;;;8.67;7.87;;;9.40;99.90;;;;;;5012305;28;20242;-64
2022/09/30 06:58:49;;;;;;;9.77;8.77;;;9.50;99.90;;;;;;5028282;28;20204;-64
2022/09/30 07:01:15;;;;;;;10.33;9.17;;;9.60;99.90;;;;;;5024085;28;20587;-64
2022/09/30 07:03:43;;;;;;;11.07;9.40;;;9.60;99.90;;;;;;5036483;28;20210;-65
2022/09/30 07:06:10;;;;;;;8.60;7.70;;;9.70;99.90;;;;;;5012441;28;20212;-66
2022/09/30 07:08:37;;;;;;;10.20;9.20;;;9.80;99.90;;;;;;5014761;28;20632;-64
2022/09/30 07:11:13;;;;;;;10.13;9.13;;;9.80;99.90;;;;;;5017728;28;20210;-65
2022/09/30 07:13:42;;;;;;;12.60;10.23;;;9.90;99.90;;;;;;5015341;28;20699;-67
2022/09/30 07:16:08;;;;;;;11.57;9.43;;;10.00;99.90;;;;;;5025022;28;20188;-64
2022/09/30 07:18:33;;;;;;;10.97;9.87;;;10.10;99.90;;;;;;5027458;28;20205;-64
2022/09/30 07:20:59;;;;;;;12.40;9.13;;;10.20;99.90;;;;;;5028713;28;20200;-64
2022/09/30 07:23:25;;;;;;;10.90;9.80;;;10.20;99.90;;;;;;5039638;28;20234;-64
2022/09/30 07:26:08;;;;;;;9.60;8.57;;;10.30;99.90;;;;;;5028339;28;20205;-64
2022/09/30 07:28:38;;;;;;;11.83;10.43;;;10.40;99.90;;;;;;5022334;28;20204;-64
2022/09/30 07:31:12;;;;;;;11.17;9.73;;;10.40;99.90;;;;;;5021263;28;20709;-64
2022/09/30 07:33:38;;;;;;;12.60;9.50;;;10.50;99.90;;;;;;5018663;28;20215;-65
2022/09/30 07:36:07;;;;;;;14.07;8.50;;;10.50;99.90;;;;;;5020213;28;20194;-66
2022/09/30 07:38:35;;;;;;;10.27;9.23;;;10.60;99.90;;;;;;5029647;28;20216;-66
2022/09/30 07:41:07;;;;;;;13.00;9.33;;;10.70;99.90;;;;;;5017063;28;20198;-66
2022/09/30 07:43:36;;;;;;;11.80;9.83;;;10.70;99.90;;;;;;5021623;28;20799;-67
2022/09/30 07:46:09;;;;;;;15.37;9.73;;;10.80;99.90;;;;;;5027595;28;20208;-64
2022/09/30 07:48:46;;;;;;;10.50;9.40;;;10.90;99.90;;;;;;5033852;28;20190;-64
2022/09/30 07:51:33;;;;;;;15.47;11.23;;;10.90;99.90;;;;;;5027596;28;20222;-64
2022/09/30 07:54:01;;;;;;;18.40;15.20;;;11.10;99.90;;;;;;5026253;28;20630;-64
2022/09/30 07:56:28;;;;;;;17.80;15.90;;;11.10;99.90;;;;;;5013214;28;20890;-64
2022/09/30 07:58:59;;;;;;;19.17;15.30;;;11.20;99.90;;;;;;5038298;28;20285;-64
2022/09/30 08:01:26;;;;;;;18.20;15.87;;;11.30;99.90;;;;;;5027180;28;20186;-65
2022/09/30 08:03:54;;;;;;;18.90;16.90;;;11.30;99.90;;;;;;5031339;28;20283;-64
2022/09/30 08:06:20;;;;;;;18.10;16.27;;;11.30;99.90;;;;;;5018015;28;20221;-64
2022/09/30 08:08:46;;;;;;;15.10;13.60;;;11.40;99.90;;;;;;5026763;28;20687;-68
2022/09/30 08:11:13;;;;;;;16.57;13.47;;;11.50;99.90;;;;;;5014934;28;20240;-66
2022/09/30 08:13:39;;;;;;;12.23;10.90;;;11.50;99.90;;;;;;5032065;28;20235;-66
2022/09/30 08:16:05;;;;;;;11.87;10.67;;;11.60;99.90;;;;;;5019322;28;20185;-66
2022/09/30 08:18:31;;;;;;;12.87;11.50;;;11.70;99.90;;;;;;5032657;28;20667;-66
2022/09/30 08:21:00;;;;;;;12.87;10.63;;;11.80;99.90;;;;;;5024642;28;20240;-68
2022/09/30 08:23:28;;;;;;;11.77;10.57;;;11.90;99.90;;;;;;5034396;28;20713;-71
2022/09/30 08:26:01;;;;;;;11.20;10.20;;;11.90;99.90;;;;;;5036422;28;20696;-65
2022/09/30 08:28:30;;;;;;;14.07;10.60;;;12.00;99.90;;;;;;5007904;28;20210;-64
2022/09/30 08:31:01;;;;;;;11.97;10.73;;;12.10;99.90;;;;;;5026225;28;20553;-64
2022/09/30 08:33:27;;;;;;;11.20;10.20;;;12.20;99.90;;;;;;5005856;28;20653;-65
2022/09/30 08:35:52;;;;;;;12.50;11.20;;;12.30;99.90;;;;;;5017878;28;20250;-64
2022/09/30 08:38:18;;;;;;;13.30;10.07;;;12.30;99.90;;;;;;5040924;28;20212;-65
2022/09/30 08:41:28;;;;;;;12.77;10.73;;;12.40;99.90;;;;;;5030490;28;20269;-64
2022/09/30 08:44:37;;;;;;;11.53;10.30;;;12.50;99.90;;;;;;5008641;28;20192;-65
2022/09/30 08:47:33;;;;;;;11.47;10.27;;;12.60;99.90;;;;;;5024762;28;20202;-65
2022/09/30 08:50:29;;;;;;;10.80;9.60;;;12.70;99.90;;;;;;5016134;28;20215;-65
2022/09/30 08:53:01;;;;;;;10.63;9.50;;;12.70;99.90;;;;;;5024708;28;20227;-65
2022/09/30 08:55:38;;;;;;;10.50;9.40;;;12.80;99.90;;;;;;5019575;28;20580;-64
2022/09/30 08:58:05;;;;;;;11.33;10.23;;;12.80;99.90;;;;;;5026024;28;20256;-64
2022/09/30 09:00:30;;;;;;;10.27;9.27;;;12.90;99.90;;;;;;5026724;28;20519;-64
2022/09/30 09:03:02;;;;;;;11.47;10.37;;;12.90;99.90;;;;;;5039303;28;20677;-65
2022/09/30 09:05:59;;;;;;;10.13;9.13;;;13.00;99.90;;;;;;5026958;28;20289;-65
2022/09/30 09:08:48;;;;;;;11.43;9.83;;;13.00;99.90;;;;;;5021576;28;20194;-65
2022/09/30 09:11:29;;;;;;;9.63;8.63;;;13.10;99.90;;;;;;5019128;28;20195;-65
2022/09/30 09:14:02;;;;;;;10.10;9.20;;;13.20;99.90;;;;;;5020336;28;20659;-64
2022/09/30 09:16:40;;;;;;;9.60;8.73;;;13.20;99.90;;;;;;5026351;28;20181;-65
2022/09/30 09:19:14;;;;;;;11.93;9.03;;;13.30;99.90;;;;;;5011656;28;20236;-64
2022/09/30 09:22:00;;;;;;;10.03;8.70;;;13.30;99.90;;;;;;5026212;28;20519;-64
2022/09/30 09:24:39;;;;;;;9.73;8.80;;;13.50;99.90;;;;;;5022885;28;20292;-64
2022/09/30 09:27:18;;;;;;;10.37;9.43;;;13.50;99.90;;;;;;5022660;28;20495;-64
2022/09/30 09:30:08;;;;;;;10.53;8.27;;;13.60;99.90;;;;;;5013165;28;20672;-64
2022/09/30 09:32:35;;;;;;;9.57;8.17;;;13.70;99.90;;;;;;5040213;28;20185;-65
2022/09/30 09:35:12;;;;;;;7.67;6.87;;;13.70;99.90;;;;;;5031643;28;20199;-64
2022/09/30 09:38:23;;;;;;;9.23;8.23;;;13.80;99.90;;;;;;5006531;28;20258;-64
2022/09/30 09:41:15;;;;;;;9.47;8.30;;;13.90;99.90;;;;;;5020502;28;20561;-65
2022/09/30 09:44:03;;;;;;;9.30;8.50;;;14.00;99.90;;;;;;5012669;28;20280;-65
2022/09/30 09:46:44;;;;;;;7.97;7.10;;;14.10;99.90;;;;;;5030498;28;20223;-65
2022/09/30 09:49:12;;;;;;;7.43;6.37;;;14.10;99.90;;;;;;5023289;28;20187;-65
2022/09/30 09:51:42;;;;;;;7.60;6.90;;;14.20;99.90;;;;;;5029062;28;20288;-64
2022/09/30 09:54:11;;;;;;;7.17;6.50;;;14.20;99.90;;;;;;5035286;28;20268;-64
2022/09/30 09:56:36;;;;;;;8.30;7.10;;;14.30;99.90;;;;;;5025129;28;20268;-64
2022/09/30 09:59:16;;;;;;;9.10;8.10;;;14.30;99.90;;;;;;5039055;28;20240;-65
2022/09/30 10:02:00;;;;;;;7.97;6.77;;;14.40;99.90;;;;;;5021406;28;20184;-65
2022/09/30 10:04:31;;;;;;;7.00;6.40;;;14.50;99.90;;;;;;5014050;28;20286;-65
2022/09/30 10:06:59;;;;;;;7.00;6.40;;;14.60;99.90;;;;;;5011684;28;20219;-65
2022/09/30 10:09:33;;;;;;;6.53;6.03;;;14.60;99.90;;;;;;5032067;28;20202;-65
2022/09/30 10:12:05;;;;;;;6.80;6.17;;;14.70;99.90;;;;;;5022346;28;20636;-64
2022/09/30 10:14:55;;;;;;;7.63;6.57;;;14.70;99.90;;;;;;5034371;28;20200;-65
2022/09/30 10:17:28;;;;;;;6.77;6.10;;;14.80;99.90;;;;;;5022700;28;20557;-65
2022/09/30 10:20:19;;;;;;;7.97;7.07;;;14.90;99.90;;;;;;5013667;28;20203;-65
2022/09/30 10:22:46;;;;;;;7.03;6.33;;;15.00;99.90;;;;;;5022412;28;20642;-64
2022/09/30 10:25:23;;;;;;;7.67;6.77;;;15.00;99.90;;;;;;5030281;28;20214;-64
2022/09/30 10:27:53;;;;;;;6.63;5.93;;;15.00;99.90;;;;;;5026374;28;20525;-64
2022/09/30 10:30:34;;;;;;;7.50;6.70;;;15.20;99.90;;;;;;5030099;28;20265;-65
2022/09/30 10:33:03;;;;;;;5.13;4.63;;;15.30;99.90;;;;;;5029250;28;20677;-64
2022/09/30 10:35:29;;;;;;;7.37;5.90;;;15.40;99.90;;;;;;5015956;28;20878;-65
2022/09/30 10:37:58;;;;;;;6.80;5.37;;;15.50;99.90;;;;;;5028903;28;20194;-68
2022/09/30 10:40:27;;;;;;;5.53;4.53;;;15.70;99.90;;;;;;5020281;28;20204;-64
2022/09/30 10:42:54;;;;;;;5.10;3.93;;;15.90;99.90;;;;;;5033401;28;20195;-59
2022/09/30 10:45:32;;;;;;;6.30;4.80;;;16.00;99.90;;;;;;5016859;28;20204;-61
2022/09/30 10:48:02;;;;;;;4.50;4.10;;;16.10;99.90;;;;;;5011816;28;20347;-62
2022/09/30 10:50:27;;;;;;;5.73;4.50;;;16.20;99.90;;;;;;5029763;28;20199;-62
2022/09/30 10:53:03;;;;;;;3.67;3.37;;;16.30;99.90;;;;;;5025777;28;20214;-61
2022/09/30 10:55:39;;;;;;;4.97;4.43;;;16.50;99.90;;;;;;5020802;28;20268;-61
2022/09/30 10:58:20;;;;;;;5.17;4.67;;;16.60;99.60;;;;;;5020485;28;20627;-61
2022/09/30 11:00:51;;;;;;;5.27;4.43;;;16.70;99.90;;;;;;5023377;28;20242;-61
2022/09/30 11:03:22;;;;;;;5.10;4.10;;;16.80;99.90;;;;;;5013655;28;20734;-61
2022/09/30 11:05:49;;;;;;;4.70;4.30;;;17.00;99.90;;;;;;5020506;28;20223;-61
2022/09/30 11:08:24;;;;;;;4.00;3.70;;;17.10;99.40;;;;;;5042770;28;20203;-62
2022/09/30 11:11:10;;;;;;;3.97;3.67;;;17.10;98.80;;;;;;5019969;28;20967;-63
2022/09/30 11:13:56;;;;;;;3.53;3.23;;;17.30;98.00;;;;;;5015683;28;20179;-62
2022/09/30 11:16:52;;;;;;;4.23;3.77;;;17.50;98.20;;;;;;5020690;28;20673;-63
2022/09/30 11:19:32;;;;;;;3.50;3.17;;;17.60;97.80;;;;;;5025613;28;21139;-61
2022/09/30 11:22:21;;;;;;;4.73;3.00;;;17.70;98.20;;;;;;5021630;28;20204;-68
2022/09/30 11:24:49;;;;;;;3.60;3.30;;;17.80;98.90;;;;;;5016767;28;20207;-61
2022/09/30 11:27:50;;;;;;;4.33;3.43;;;17.90;96.10;;;;;;5027754;28;20279;-61
2022/09/30 11:30:16;;;;;;;5.77;3.03;;;18.10;95.40;;;;;;5026359;28;20219;-62
2022/09/30 11:32:52;;;;;;;2.60;2.40;;;18.10;96.70;;;;;;5032553;28;20949;-61
2022/09/30 11:35:36;;;;;;;2.67;2.17;;;18.20;97.30;;;;;;5016338;28;20208;-61
2022/09/30 11:38:09;;;;;;;4.23;2.20;;;18.50;95.30;;;;;;5017206;28;20684;-62
2022/09/30 11:41:05;;;;;;;2.83;1.93;;;18.70;92.00;;;;;;5018203;28;20635;-62
2022/09/30 11:44:00;;;;;;;1.80;1.70;;;18.90;93.90;;;;;;5027306;28;20205;-64
2022/09/30 11:46:56;;;;;;;1.70;1.60;;;19.10;91.90;;;;;;5025546;28;20221;-62
2022/09/30 11:49:56;;;;;;;1.90;1.80;;;19.20;90.10;;;;;;5015859;28;20180;-63
2022/09/30 11:52:54;;;;;;;2.10;1.47;;;19.20;88.00;;;;;;5025992;28;20235;-62
2022/09/30 11:55:42;;;;;;;5.23;1.80;;;19.40;89.30;;;;;;5033713;28;20652;-62
2022/09/30 11:58:11;;;;;;;1.70;1.60;;;19.30;87.40;;;;;;5033395;28;20200;-61
2022/09/30 12:00:43;;;;;;;1.73;1.63;;;19.40;91.00;;;;;;5018166;28;20573;-63
2022/09/30 12:03:28;;;;;;;2.70;1.70;;;19.80;87.70;;;;;;5007990;28;20199;-63
2022/09/30 12:06:00;;;;;;;2.07;1.87;;;20.20;83.20;;;;;;5014205;28;20686;-62
2022/09/30 12:08:41;;;;;;;1.73;1.63;;;20.60;81.70;;;;;;5009848;28;20269;-62
2022/09/30 12:11:15;;;;;;;5.83;1.83;;;20.90;84.40;;;;;;5021744;28;20675;-62
2022/09/30 12:13:50;;;;;;;1.90;1.70;;;21.10;79.40;;;;;;5023934;28;20197;-62
2022/09/30 12:16:20;;;;;;;2.67;1.83;;;21.10;77.10;;;;;;5022580;28;20232;-63
2022/09/30 12:18:52;;;;;;;2.77;1.60;;;21.00;75.50;;;;;;5037882;28;20205;-63
2022/09/30 12:21:28;;;;;;;1.67;1.50;;;20.80;75.60;;;;;;5023076;28;20207;-62
2022/09/30 12:24:01;;;;;;;1.70;1.60;;;21.00;74.10;;;;;;5021069;28;20203;-62
2022/09/30 12:26:26;;;;;;;4.17;1.60;;;21.10;73.80;;;;;;5017330;28;20718;-63
2022/09/30 12:31:57;;;;;;;2.00;1.40;;;21.90;72.20;;;;;;5016187;28;20194;-62
2022/09/30 12:34:41;;;;;;;1.40;1.30;;;22.10;68.40;;;;;;5018929;28;20219;-63
2022/09/30 12:37:24;;;;;;;1.90;1.20;;;22.40;76.70;;;;;;5026990;28;20482;-63
2022/09/30 12:40:25;;;;;;;3.20;1.37;;;22.90;77.40;;;;;;5018450;28;20204;-62
2022/09/30 12:43:09;;;;;;;1.70;1.60;;;23.50;71.80;;;;;;5024355;28;21070;-62
2022/09/30 12:45:44;;;;;;;1.60;1.50;;;23.80;64.90;;;;;;5015638;28;20636;-63
2022/09/30 12:48:16;;;;;;;1.70;1.60;;;23.00;64.00;;;;;;5014710;28;20294;-62
2022/09/30 12:50:48;;;;;;;3.10;2.00;;;22.20;66.10;;;;;;5033536;28;20233;-62
2022/09/30 12:53:19;;;;;;;1.70;1.60;;;22.30;66.80;;;;;;5032526;28;20204;-62
2022/09/30 12:55:45;;;;;;;2.43;1.80;;;22.80;67.60;;;;;;5022528;28;20575;-62
2022/09/30 12:58:23;;;;;;;2.10;1.90;;;23.30;68.20;;;;;;5040610;28;20218;-63
2022/09/30 13:01:16;;;;;;;1.83;1.60;;;23.60;65.20;;;;;;5017832;28;20203;-64
2022/09/30 13:03:50;;;;;;;4.43;1.90;;;24.00;63.00;;;;;;5019248;28;20306;-63
2022/09/30 13:06:17;;;;;;;1.67;1.55;;;23.60;61.50;;;;;;5021196;28;20689;-63
2022/09/30 13:08:47;;;;;;;2.00;1.40;;;23.20;62.60;;;;;;5040675;28;20229;-63
2022/09/30 13:11:33;;;;;;;2.25;1.60;;;23.40;65.80;;;;;;5023664;28;20211;-63
2022/09/30 13:14:11;;;;;;;2.28;1.75;;;23.40;63.90;;;;;;5017043;28;20633;-63
2022/09/30 13:17:20;;;;;;;1.52;1.42;;;23.00;63.10;;;;;;5020363;28;20390;-63
2022/09/30 13:19:50;;;;;;;3.13;2.17;;;23.40;61.20;;;;;;5022470;28;20203;-63
2022/09/30 13:22:18;;;;;;;2.25;1.60;;;23.90;64.00;;;;;;5032166;28;20195;-63
2022/09/30 13:24:59;;;;;;;4.38;1.40;;;24.00;61.10;;;;;;5040261;28;20570;-63